Time;durP1;ratioP1;P1;durP2;ratioP2;P2;SDS_P1;SDS_P2;PMS_P1;PMS_P2;Temp;Humidity;BMP_temperature;BMP_pressure;BME280_temperature;BME280_humidity;BME280_pressure;Samples;Min_cycle;Max_cycle;Signal;HPM_P1;HPM_P2
2023/09/22 00:01:12;;;;;;;;;;;24.30;82.70;;;;;;5107118;27;42943;-83
2023/09/22 00:03:38;;;;;;;;;;;24.30;83.00;;;;;;5107160;27;42782;-81
2023/09/22 00:06:03;;;;;;;;;;;24.20;82.30;;;;;;5089239;27;44561;-81
2023/09/22 00:08:29;;;;;;;;;;;24.20;82.40;;;;;;5107451;27;42946;-82
2023/09/22 00:10:55;;;;;;;;;;;24.30;83.40;;;;;;5107343;27;43004;-82
2023/09/22 00:13:21;;;;;;;;;;;24.10;83.20;;;;;;5105305;27;42943;-82
2023/09/22 00:15:46;;;;;;;;;;;24.20;83.00;;;;;;5107711;27;43436;-81
2023/09/22 00:18:12;;;;;;;;;;;25.60;83.80;;;;;;5107702;27;42870;-82
2023/09/22 00:20:38;;;;;;;;;;;24.20;82.80;;;;;;5107270;27;43060;-82
2023/09/22 00:23:04;;;;;;;;;;;24.20;82.90;;;;;;5107354;27;42884;-81
2023/09/22 00:25:29;;;;;;;;;;;24.20;82.40;;;;;;5106073;27;43945;-81
2023/09/22 00:27:55;;;;;;;;;;;24.30;83.10;;;;;;5106850;27;43011;-86
2023/09/22 00:30:21;;;;;;;;;;;24.10;82.80;;;;;;5106046;27;42928;-83
2023/09/22 00:32:46;;;;;;;;;;;24.20;82.70;;;;;;5106935;27;42773;-83
2023/09/22 00:35:14;;;;;;;;;;;24.20;82.70;;;;;;5106364;27;43133;-82
2023/09/22 00:37:40;;;;;;;;;;;24.20;82.60;;;;;;5106760;27;42979;-82
2023/09/22 00:40:08;;;;;;;;;;;24.10;82.60;;;;;;5090095;27;42957;-82
2023/09/22 00:42:34;;;;;;;;;;;24.30;81.90;;;;;;5085715;27;43233;-84
2023/09/22 00:44:59;;;;;;;;;;;24.10;82.80;;;;;;5088276;27;43077;-81
2023/09/22 00:47:25;;;;;;;;;;;24.30;82.90;;;;;;5105748;27;42955;-81
2023/09/22 00:49:53;;;;;;;;;;;24.40;82.40;;;;;;5102964;27;43330;-82
2023/09/22 00:52:19;;;;;;;;;;;24.30;82.20;;;;;;5107225;27;42978;-81
2023/09/22 00:54:45;;;;;;;;;;;24.30;82.40;;;;;;5107134;27;43358;-81
2023/09/22 00:57:11;;;;;;;;;;;24.30;82.60;;;;;;5107697;27;42952;-85
2023/09/22 00:59:37;;;;;;;;;;;24.30;82.40;;;;;;5105664;27;42997;-81
2023/09/22 01:02:03;;;;;;;;;;;24.30;82.40;;;;;;5087235;28;42992;-82
2023/09/22 01:04:29;;;;;;;;;;;24.30;82.80;;;;;;5082142;27;43016;-82
2023/09/22 01:06:55;;;;;;;;;;;24.30;82.40;;;;;;5104641;27;42868;-82
2023/09/22 01:09:21;;;;;;;;;;;24.30;82.90;;;;;;5085768;28;43638;-81
2023/09/22 01:11:46;;;;;;;;;;;24.30;82.70;;;;;;5102337;27;43615;-82
2023/09/22 01:14:12;;;;;;;;;;;24.50;82.50;;;;;;5103689;27;43019;-81
2023/09/22 01:16:37;;;;;;;;;;;24.40;81.90;;;;;;5104129;27;43024;-82
2023/09/22 01:19:10;;;;;;;;;;;23.40;82.30;;;;;;5104659;27;43329;-82
2023/09/22 01:21:35;;;;;;;;;;;24.30;82.90;;;;;;5099019;27;43068;-82
2023/09/22 01:24:01;;;;;;;;;;;24.20;83.10;;;;;;5106021;27;43079;-82
2023/09/22 01:26:26;;;;;;;;;;;24.30;82.80;;;;;;5103262;27;42975;-81
2023/09/22 01:28:52;;;;;;;;;;;23.90;82.70;;;;;;5107230;27;42934;-81
2023/09/22 01:31:18;;;;;;;;;;;24.20;83.00;;;;;;5098490;27;42965;-82
2023/09/22 01:33:46;;;;;;;;;;;24.10;82.70;;;;;;5086321;28;43339;-82
2023/09/22 01:36:13;;;;;;;;;;;24.30;81.40;;;;;;5085769;28;42858;-82
2023/09/22 01:38:39;;;;;;;;;;;23.90;82.20;;;;;;5086900;27;43541;-82
2023/09/22 01:41:06;;;;;;;;;;;24.30;82.90;;;;;;5091198;27;43122;-87
2023/09/22 01:43:32;;;;;;;;;;;24.40;82.60;;;;;;5101694;27;43398;-81
2023/09/22 01:45:58;;;;;;;;;;;24.30;82.70;;;;;;5105626;27;42979;-82
2023/09/22 01:48:24;;;;;;;;;;;24.40;82.50;;;;;;5106428;27;43087;-82
2023/09/22 01:50:50;;;;;;;;;;;24.40;83.20;;;;;;5104914;27;43264;-81
2023/09/22 01:53:15;;;;;;;;;;;24.10;83.30;;;;;;5106049;27;43067;-81
2023/09/22 01:55:41;;;;;;;;;;;24.20;82.70;;;;;;5086642;27;42895;-81
2023/09/22 01:58:07;;;;;;;;;;;24.30;83.20;;;;;;5106131;27;42913;-83
2023/09/22 02:00:35;;;;;;;;;;;24.20;83.20;;;;;;5103675;27;61000;-81
2023/09/22 02:03:01;;;;;;;;;;;24.20;83.00;;;;;;5105375;27;43362;-81
2023/09/22 02:05:27;;;;;;;;;;;24.30;82.80;;;;;;5105128;27;43236;-81
2023/09/22 02:07:52;;;;;;;;;;;24.40;82.40;;;;;;5105566;27;42851;-81
2023/09/22 02:10:18;;;;;;;;;;;24.20;82.80;;;;;;5105583;27;42948;-82
2023/09/22 02:12:44;;;;;;;;;;;24.40;82.70;;;;;;5105396;27;43025;-82
2023/09/22 02:15:10;;;;;;;;;;;24.30;82.70;;;;;;5105690;27;43100;-82
2023/09/22 02:17:36;;;;;;;;;;;24.30;83.20;;;;;;5105025;27;43634;-82
2023/09/22 02:20:05;;;;;;;;;;;24.40;83.40;;;;;;5105456;27;42963;-81
2023/09/22 02:22:31;;;;;;;;;;;24.40;82.70;;;;;;5105220;27;43794;-81
2023/09/22 02:24:58;;;;;;;;;;;24.30;82.80;;;;;;5105216;27;43230;-82
2023/09/22 02:27:24;;;;;;;;;;;24.30;81.90;;;;;;5104315;27;42932;-82
2023/09/22 02:29:49;;;;;;;;;;;24.20;83.60;;;;;;5106105;27;42792;-81
2023/09/22 02:32:15;;;;;;;;;;;24.20;83.60;;;;;;5105446;27;44442;-82
2023/09/22 02:34:40;;;;;;;;;;;24.60;83.80;;;;;;5105986;27;43042;-81
2023/09/22 02:37:06;;;;;;;;;;;24.30;83.70;;;;;;5106123;27;43694;-81
2023/09/22 02:39:31;;;;;;;;;;;24.10;83.80;;;;;;5105680;27;43047;-81
2023/09/22 02:41:57;;;;;;;;;;;24.10;83.70;;;;;;5105691;27;42926;-83
2023/09/22 02:44:22;;;;;;;;;;;24.10;83.70;;;;;;5106288;27;43215;-82
2023/09/22 02:46:48;;;;;;;;;;;24.20;84.00;;;;;;5106372;27;43065;-81
2023/09/22 02:49:13;;;;;;;;;;;24.00;83.90;;;;;;5105158;27;42924;-82
2023/09/22 02:51:39;;;;;;;;;;;24.00;83.90;;;;;;5105400;27;42943;-81
2023/09/22 02:54:05;;;;;;;;;;;24.30;83.80;;;;;;5105740;27;43088;-81
2023/09/22 02:56:32;;;;;;;;;;;24.30;83.20;;;;;;5106075;27;42866;-81
2023/09/22 02:58:58;;;;;;;;;;;24.10;83.10;;;;;;5105528;27;42751;-82
2023/09/22 03:01:24;;;;;;;;;;;24.00;82.90;;;;;;5105247;27;43577;-81
2023/09/22 03:03:50;;;;;;;;;;;24.20;83.60;;;;;;5104698;27;43088;-83
2023/09/22 03:06:18;;;;;;;;;;;24.20;83.70;;;;;;5103877;27;42980;-82
2023/09/22 03:08:43;;;;;;;;;;;24.10;83.70;;;;;;5105696;27;42956;-83
2023/09/22 03:11:09;;;;;;;;;;;24.20;83.70;;;;;;5105349;27;43455;-83
2023/09/22 03:13:35;;;;;;;;;;;24.00;83.60;;;;;;5104917;27;43014;-81
2023/09/22 03:16:00;;;;;;;;;;;24.00;83.50;;;;;;5104907;27;42850;-82
2023/09/22 03:18:27;;;;;;;;;;;24.10;83.00;;;;;;5104004;27;42988;-82
2023/09/22 03:20:52;;;;;;;;;;;24.20;83.50;;;;;;5104760;27;43485;-82
2023/09/22 03:23:18;;;;;;;;;;;24.10;83.20;;;;;;5086079;27;42927;-81
2023/09/22 03:25:47;;;;;;;;;;;24.40;83.50;;;;;;5085872;27;44744;-82
2023/09/22 03:28:13;;;;;;;;;;;24.30;80.80;;;;;;5105159;27;42910;-82
2023/09/22 03:30:39;;;;;;;;;;;24.40;82.70;;;;;;5105173;27;42837;-82
2023/09/22 03:33:05;;;;;;;;;;;24.40;82.90;;;;;;5104864;27;43090;-82
2023/09/22 03:35:31;;;;;;;;;;;24.30;83.20;;;;;;5104713;27;43016;-82
2023/09/22 03:37:57;;;;;;;;;;;24.40;82.80;;;;;;5104889;27;42963;-85
2023/09/22 03:40:32;;;;;;;;;;;24.20;82.70;;;;;;5104842;27;42888;-82
2023/09/22 03:42:58;;;;;;;;;;;24.30;81.80;;;;;;5104460;27;42951;-81
2023/09/22 03:45:24;;;;;;;;;;;24.40;83.60;;;;;;5104112;27;42866;-82
2023/09/22 03:47:50;;;;;;;;;;;24.20;83.70;;;;;;5104041;27;43112;-82
2023/09/22 03:50:15;;;;;;;;;;;24.30;83.90;;;;;;5104539;27;43689;-82
2023/09/22 03:52:41;;;;;;;;;;;24.10;83.70;;;;;;5104927;27;42975;-82
2023/09/22 03:55:08;;;;;;;;;;;24.10;83.80;;;;;;5104933;27;43554;-81
2023/09/22 03:57:33;;;;;;;;;;;24.00;83.30;;;;;;5105143;27;42846;-81
2023/09/22 03:59:59;;;;;;;;;;;24.30;84.40;;;;;;5103521;27;43530;-81
2023/09/22 04:02:27;;;;;;;;;;;24.20;83.60;;;;;;5103460;27;43636;-82
2023/09/22 04:04:54;;;;;;;;;;;24.30;83.30;;;;;;5086264;27;44543;-81
2023/09/22 04:07:19;;;;;;;;;;;24.30;83.70;;;;;;5104703;27;42932;-81
2023/09/22 04:09:45;;;;;;;;;;;24.20;83.30;;;;;;5104294;27;43094;-82
2023/09/22 04:12:11;;;;;;;;;;;24.10;84.50;;;;;;5105050;27;42786;-82
2023/09/22 04:14:37;;;;;;;;;;;24.20;83.60;;;;;;5103255;27;43848;-81
2023/09/22 04:17:03;;;;;;;;;;;24.00;84.10;;;;;;5106756;27;43019;-83
2023/09/22 04:19:33;;;;;;;;;;;24.80;84.20;;;;;;5105526;27;42904;-83
2023/09/22 04:21:59;;;;;;;;;;;24.30;83.10;;;;;;5092824;27;42997;-85
2023/09/22 04:24:31;;;;;;;;;;;24.40;83.80;;;;;;5087653;28;43276;-87
2023/09/22 04:27:00;;;;;;;;;;;25.30;84.10;;;;;;5087619;28;42879;-85
2023/09/22 04:29:26;;;;;;;;;;;24.50;83.40;;;;;;5086952;28;43650;-81
2023/09/22 04:31:52;;;;;;;;;;;24.40;82.90;;;;;;5087026;28;43113;-84
2023/09/22 04:34:19;;;;;;;;;;;24.40;83.30;;;;;;5088236;27;42937;-87
2023/09/22 04:36:45;;;;;;;;;;;24.40;82.70;;;;;;5104027;27;43101;-81
2023/09/22 04:39:10;;;;;;;;;;;25.00;83.30;;;;;;5104760;27;43538;-82
2023/09/22 04:41:36;;;;;;;;;;;24.40;83.40;;;;;;5076661;27;43442;-82
2023/09/22 04:44:02;;;;;;;;;;;24.40;82.80;;;;;;5095196;27;43202;-81
2023/09/22 04:46:27;;;;;;;;;;;24.40;82.90;;;;;;5096046;27;43071;-82
2023/09/22 04:48:55;;;;;;;;;;;24.30;83.00;;;;;;5091232;27;42863;-85
2023/09/22 04:51:21;;;;;;;;;;;24.30;83.70;;;;;;5087009;28;43024;-83
2023/09/22 04:53:47;;;;;;;;;;;24.30;83.30;;;;;;5098231;27;42994;-81
2023/09/22 04:56:12;;;;;;;;;;;24.30;83.50;;;;;;5098658;27;42953;-82
2023/09/22 04:58:38;;;;;;;;;;;24.30;83.60;;;;;;5116677;27;43065;-81
2023/09/22 05:01:03;;;;;;;;;;;24.30;83.90;;;;;;5104425;27;42962;-80
2023/09/22 05:03:29;;;;;;;;;;;24.30;84.00;;;;;;5106991;27;42968;-81
2023/09/22 05:06:01;;;;;;;;;;;24.20;83.70;;;;;;5089438;27;43126;-89
2023/09/22 05:08:27;;;;;;;;;;;24.30;83.80;;;;;;5087645;27;42909;-87
2023/09/22 05:10:52;;;;;;;;;;;24.40;83.20;;;;;;5085569;27;43217;-85
2023/09/22 05:13:18;;;;;;;;;;;24.30;84.30;;;;;;5089571;27;43082;-81
2023/09/22 05:15:43;;;;;;;;;;;24.40;83.70;;;;;;5075086;27;42927;-84
2023/09/22 05:18:13;;;;;;;;;;;24.40;83.60;;;;;;5101603;27;43299;-81
2023/09/22 05:20:40;;;;;;;;;;;24.40;83.80;;;;;;5100034;27;43118;-83
2023/09/22 05:23:06;;;;;;;;;;;24.40;83.60;;;;;;5075643;27;44694;-84
2023/09/22 05:25:32;;;;;;;;;;;24.30;83.40;;;;;;5100503;27;43015;-85
2023/09/22 05:27:58;;;;;;;;;;;24.50;83.20;;;;;;5082205;27;44730;-81
2023/09/22 05:30:23;;;;;;;;;;;24.40;83.50;;;;;;5083475;27;43176;-82
2023/09/22 05:32:49;;;;;;;;;;;24.40;82.90;;;;;;5099459;27;43422;-83
2023/09/22 05:35:15;;;;;;;;;;;24.30;83.50;;;;;;5097376;27;43107;-83
2023/09/22 05:37:41;;;;;;;;;;;24.40;84.10;;;;;;5103219;27;42958;-80
2023/09/22 05:40:12;;;;;;;;;;;24.30;84.40;;;;;;5103109;27;43071;-79
2023/09/22 05:42:42;;;;;;;;;;;24.30;83.60;;;;;;5097926;27;43283;-79
2023/09/22 05:45:08;;;;;;;;;;;24.10;84.50;;;;;;5095655;27;42872;-80
2023/09/22 05:47:34;;;;;;;;;;;24.10;84.00;;;;;;5078613;27;43072;-80
2023/09/22 05:50:02;;;;;;;;;;;24.20;84.80;;;;;;5106340;27;42986;-80
2023/09/22 05:52:27;;;;;;;;;;;24.20;84.50;;;;;;5084336;27;44568;-80
2023/09/22 05:54:53;;;;;;;;;;;24.30;83.60;;;;;;5095881;27;43219;-80
2023/09/22 05:57:18;;;;;;;;;;;24.50;83.90;;;;;;5085664;27;43655;-80
2023/09/22 05:59:45;;;;;;;;;;;24.30;83.60;;;;;;5082622;28;43048;-80
2023/09/22 06:02:10;;;;;;;;;;;24.40;83.30;;;;;;5085038;28;42952;-80
2023/09/22 06:04:36;;;;;;;;;;;24.40;84.00;;;;;;5085186;28;42875;-80
2023/09/22 06:07:02;;;;;;;;;;;24.30;83.10;;;;;;5087087;27;43353;-81
2023/09/22 06:09:28;;;;;;;;;;;24.60;83.20;;;;;;5103675;27;42951;-80
2023/09/22 06:11:53;;;;;;;;;;;24.50;82.90;;;;;;5087346;27;44581;-79
2023/09/22 06:14:19;;;;;;;;;;;24.60;83.00;;;;;;5106366;27;42903;-81
2023/09/22 06:16:44;;;;;;;;;;;24.30;82.20;;;;;;5104879;27;43467;-80
2023/09/22 06:19:10;;;;;;;;;;;24.40;82.70;;;;;;5106595;27;42898;-81
2023/09/22 06:21:38;;;;;;;;;;;24.50;82.90;;;;;;5106390;27;43464;-80
2023/09/22 06:24:06;;;;;;;;;;;24.60;80.70;;;;;;5106694;27;43042;-80
2023/09/22 06:26:32;;;;;;;;;;;24.60;82.20;;;;;;5106211;27;43606;-79
2023/09/22 06:28:57;;;;;;;;;;;24.40;82.30;;;;;;5105789;27;42937;-80
2023/09/22 06:31:23;;;;;;;;;;;24.40;82.40;;;;;;5105919;27;42942;-80
2023/09/22 06:33:49;;;;;;;;;;;24.50;82.30;;;;;;5106715;27;42862;-80
2023/09/22 06:36:15;;;;;;;;;;;24.40;82.30;;;;;;5087172;27;44780;-79
2023/09/22 06:38:41;;;;;;;;;;;24.60;82.30;;;;;;5106323;27;43002;-80
2023/09/22 06:41:06;;;;;;;;;;;24.60;82.20;;;;;;5104915;27;43610;-80
2023/09/22 06:43:33;;;;;;;;;;;24.60;82.10;;;;;;5105867;27;42797;-81
2023/09/22 06:46:02;;;;;;;;;;;24.00;81.80;;;;;;5105536;27;44322;-79
2023/09/22 06:48:29;;;;;;;;;;;24.60;82.10;;;;;;5105873;27;42920;-79
2023/09/22 06:50:57;;;;;;;;;;;24.60;82.10;;;;;;5106189;27;43437;-79
2023/09/22 06:53:24;;;;;;;;;;;24.50;82.20;;;;;;5105723;27;42821;-79
2023/09/22 06:55:59;;;;;;;;;;;24.70;82.10;;;;;;5106330;27;42968;-80
2023/09/22 06:58:25;;;;;;;;;;;24.60;82.00;;;;;;5106046;27;42927;-79
2023/09/22 07:00:50;;;;;;;;;;;24.50;81.80;;;;;;5106027;27;43246;-80
2023/09/22 07:03:16;;;;;;;;;;;24.70;82.10;;;;;;5105739;27;42970;-80
2023/09/22 07:05:43;;;;;;;;;;;24.70;82.10;;;;;;5105695;27;42961;-80
2023/09/22 07:08:09;;;;;;;;;;;24.60;81.80;;;;;;5086961;27;43052;-80
2023/09/22 07:10:35;;;;;;;;;;;25.00;82.10;;;;;;5105610;27;43346;-79
2023/09/22 07:13:02;;;;;;;;;;;24.60;81.50;;;;;;5105910;27;42884;-79
2023/09/22 07:15:28;;;;;;;;;;;24.70;81.80;;;;;;5105714;27;43471;-79
2023/09/22 07:17:53;;;;;;;;;;;24.70;81.40;;;;;;5105703;27;42984;-80
2023/09/22 07:20:19;;;;;;;;;;;24.60;81.30;;;;;;5104690;27;42979;-80
2023/09/22 07:22:44;;;;;;;;;;;24.60;81.70;;;;;;5105484;27;42922;-82
2023/09/22 07:25:11;;;;;;;;;;;24.70;81.80;;;;;;5105731;27;42909;-80
2023/09/22 07:27:39;;;;;;;;;;;24.60;82.10;;;;;;5105593;27;42768;-81
2023/09/22 07:30:09;;;;;;;;;;;24.70;81.70;;;;;;5104550;27;43477;-81
2023/09/22 07:32:35;;;;;;;;;;;24.70;80.70;;;;;;5105132;27;43042;-81
2023/09/22 07:35:01;;;;;;;;;;;24.70;81.30;;;;;;5105121;27;43678;-80
2023/09/22 07:37:27;;;;;;;;;;;24.60;81.50;;;;;;5105073;27;42911;-79
2023/09/22 07:39:53;;;;;;;;;;;24.70;81.60;;;;;;5104295;27;43015;-79
2023/09/22 07:42:18;;;;;;;;;;;24.70;81.50;;;;;;5105540;27;42898;-80
2023/09/22 07:44:44;;;;;;;;;;;24.80;81.60;;;;;;5105647;27;43367;-79
2023/09/22 07:47:14;;;;;;;;;;;24.60;81.40;;;;;;5105411;27;42861;-79
2023/09/22 07:49:43;;;;;;;;;;;24.80;79.90;;;;;;5104507;27;42984;-79
2023/09/22 07:52:11;;;;;;;;;;;24.60;81.40;;;;;;5107044;27;42918;-79
2023/09/22 07:54:37;;;;;;;;;;;24.70;78.80;;;;;;5108142;27;43442;-81
2023/09/22 07:57:03;;;;;;;;;;;24.60;81.30;;;;;;5108361;27;43036;-79
2023/09/22 07:59:31;;;;;;;;;;;24.60;81.40;;;;;;5108690;27;42912;-80
2023/09/22 08:02:01;;;;;;;;;;;24.70;81.10;;;;;;5108687;27;42993;-81
2023/09/22 08:04:27;;;;;;;;;;;24.80;81.50;;;;;;5108783;27;43011;-80
2023/09/22 08:06:53;;;;;;;;;;;24.80;81.30;;;;;;5109242;27;43038;-80
2023/09/22 08:09:19;;;;;;;;;;;24.80;80.80;;;;;;5108143;27;43040;-80
2023/09/22 08:11:45;;;;;;;;;;;24.60;81.30;;;;;;5107695;27;43126;-80
2023/09/22 08:14:11;;;;;;;;;;;24.70;80.80;;;;;;5108510;27;43020;-80
2023/09/22 08:16:37;;;;;;;;;;;24.70;81.20;;;;;;5108992;27;43104;-80
2023/09/22 08:19:09;;;;;;;;;;;24.70;81.00;;;;;;5108277;27;42854;-80
2023/09/22 08:21:34;;;;;;;;;;;24.70;81.00;;;;;;5107890;27;43035;-79
2023/09/22 08:24:00;;;;;;;;;;;24.70;81.20;;;;;;5089122;27;43602;-81
2023/09/22 08:26:26;;;;;;;;;;;24.70;80.70;;;;;;5108193;27;43002;-79
2023/09/22 08:28:52;;;;;;;;;;;24.80;80.70;;;;;;5107583;27;43536;-80
2023/09/22 08:31:17;;;;;;;;;;;24.70;81.20;;;;;;5108057;27;43044;-81
2023/09/22 08:33:44;;;;;;;;;;;24.90;81.20;;;;;;5107588;27;43967;-80
2023/09/22 08:36:10;;;;;;;;;;;24.80;81.40;;;;;;5106969;27;43015;-80
2023/09/22 08:38:35;;;;;;;;;;;24.80;81.50;;;;;;5107860;27;42948;-79
2023/09/22 08:41:04;;;;;;;;;;;24.90;81.30;;;;;;5108139;27;42917;-80
2023/09/22 08:43:30;;;;;;;;;;;24.80;81.20;;;;;;5107760;27;43200;-79
2023/09/22 08:45:55;;;;;;;;;;;24.60;81.10;;;;;;5089016;27;43015;-79
2023/09/22 08:48:24;;;;;;;;;;;24.80;80.70;;;;;;5107089;27;42886;-80
2023/09/22 08:50:49;;;;;;;;;;;24.70;81.10;;;;;;5107473;27;42960;-80
2023/09/22 08:53:15;;;;;;;;;;;24.00;80.60;;;;;;5107285;27;43041;-79
2023/09/22 08:55:40;;;;;;;;;;;24.80;81.00;;;;;;5107975;27;43024;-79
2023/09/22 08:58:06;;;;;;;;;;;26.60;82.50;;;;;;5107733;27;43587;-79
2023/09/22 09:00:31;;;;;;;;;;;24.70;81.00;;;;;;5088616;27;42998;-79
2023/09/22 09:02:58;;;;;;;;;;;24.80;81.10;;;;;;5105992;27;43527;-80
2023/09/22 09:05:28;;;;;;;;;;;24.80;81.10;;;;;;5107881;27;42848;-79
2023/09/22 09:07:54;;;;;;;;;;;24.70;78.90;;;;;;5107695;27;43658;-79
2023/09/22 09:10:27;;;;;;;;;;;24.90;81.10;;;;;;5107898;27;42831;-80
2023/09/22 09:12:53;;;;;;;;;;;24.70;78.70;;;;;;5107943;27;43799;-79
2023/09/22 09:15:18;;;;;;;;;;;24.80;81.20;;;;;;5088232;27;43017;-79
2023/09/22 09:17:46;;;;;;;;;;;25.40;81.10;;;;;;5106566;27;42995;-80
2023/09/22 09:20:11;;;;;;;;;;;24.70;80.70;;;;;;5106861;27;42872;-79
2023/09/22 09:22:37;;;;;;;;;;;24.80;81.00;;;;;;5106909;27;43510;-79
2023/09/22 09:25:09;;;;;;;;;;;24.80;81.00;;;;;;5107364;27;43092;-79
2023/09/22 09:27:35;;;;;;;;;;;24.70;80.60;;;;;;5107176;27;42994;-79
2023/09/22 09:30:06;;;;;;;;;;;24.70;81.00;;;;;;5107619;27;43100;-80
2023/09/22 09:32:32;;;;;;;;;;;24.90;81.40;;;;;;5106968;27;42993;-79
2023/09/22 09:34:58;;;;;;;;;;;24.70;81.10;;;;;;5107449;27;42895;-79
2023/09/22 09:37:23;;;;;;;;;;;24.80;81.20;;;;;;5107309;27;43429;-79
2023/09/22 09:39:52;;;;;;;;;;;24.70;81.50;;;;;;5106455;27;43075;-79
2023/09/22 09:42:19;;;;;;;;;;;24.90;81.20;;;;;;5106604;27;43294;-79
2023/09/22 09:44:49;;;;;;;;;;;24.80;81.30;;;;;;5106417;27;42910;-80
2023/09/22 09:47:24;;;;;;;;;;;24.70;79.00;;;;;;5106342;27;42913;-80
2023/09/22 09:49:53;;;;;;;;;;;24.70;79.20;;;;;;5106898;27;42963;-80
2023/09/22 09:52:42;;;;;;;;;;;25.00;79.30;;;;;;5106410;27;42730;-79
2023/09/22 09:55:12;;;;;;;;;;;25.10;79.30;;;;;;5105919;27;42953;-80
2023/09/22 09:57:40;;;;;;;;;;;24.70;78.90;;;;;;5106521;27;43315;-80
2023/09/22 10:00:21;;;;;;;;;;;25.00;81.30;;;;;;5106723;27;43046;-80
2023/09/22 10:02:47;;;;;;;;;;;25.00;79.00;;;;;;5088108;27;44642;-80
2023/09/22 10:05:17;;;;;;;;;;;24.80;80.80;;;;;;5106456;27;42991;-80
2023/09/22 10:07:44;;;;;;;;;;;24.90;79.00;;;;;;5106352;27;42975;-79
2023/09/22 10:10:10;;;;;;;;;;;24.70;81.00;;;;;;5106629;27;42866;-79
2023/09/22 10:12:36;;;;;;;;;;;24.70;81.10;;;;;;5106622;27;43656;-80
2023/09/22 10:15:04;;;;;;;;;;;24.90;81.20;;;;;;5105982;27;42909;-80
2023/09/22 10:17:30;;;;;;;;;;;24.80;81.10;;;;;;5106281;27;42945;-80
2023/09/22 10:19:56;;;;;;;;;;;24.70;81.20;;;;;;5087845;27;42940;-81
2023/09/22 10:22:21;;;;;;;;;;;24.70;81.20;;;;;;5106154;27;42777;-80
2023/09/22 10:25:07;;;;;;;;;;;24.80;81.00;;;;;;5106654;27;42731;-80
2023/09/22 10:27:52;;;;;;;;;;;24.70;80.90;;;;;;5106535;27;42964;-79
2023/09/22 10:30:19;;;;;;;;;;;24.80;80.90;;;;;;5105927;27;42757;-80
2023/09/22 10:32:45;;;;;;;;;;;24.80;80.50;;;;;;5106015;27;42858;-80
2023/09/22 10:35:12;;;;;;;;;;;24.80;80.90;;;;;;5106254;27;43010;-80
2023/09/22 10:37:55;;;;;;;;;;;24.80;80.90;;;;;;5106487;27;43693;-82
2023/09/22 10:40:22;;;;;;;;;;;25.20;81.20;;;;;;5087167;27;43009;-80
2023/09/22 10:42:52;;;;;;;;;;;24.70;80.80;;;;;;5105982;27;43528;-82
2023/09/22 10:45:23;;;;;;;;;;;24.90;81.00;;;;;;5106078;27;42766;-81
2023/09/22 10:47:51;;;;;;;;;;;24.80;78.90;;;;;;5105526;27;43525;-81
2023/09/22 10:50:33;;;;;;;;;;;24.70;80.90;;;;;;5105935;27;42964;-80
2023/09/22 10:53:03;;;;;;;;;;;24.70;78.60;;;;;;5087182;27;43594;-80
2023/09/22 10:55:31;;;;;;;;;;;24.80;81.10;;;;;;5106169;27;42948;-80
2023/09/22 10:58:00;;;;;;;;;;;24.60;78.70;;;;;;5105810;27;43383;-80
2023/09/22 11:00:26;;;;;;;;;;;24.80;80.80;;;;;;5106088;27;42797;-79
2023/09/22 11:02:54;;;;;;;;;;;24.70;80.50;;;;;;5105394;27;43695;-80
2023/09/22 11:05:20;;;;;;;;;;;24.80;80.80;;;;;;5105203;27;43068;-80
2023/09/22 11:07:46;;;;;;;;;;;24.70;80.60;;;;;;5105794;27;43369;-80
2023/09/22 11:10:19;;;;;;;;;;;24.80;80.80;;;;;;5105899;27;42905;-80
2023/09/22 11:12:50;;;;;;;;;;;24.60;78.60;;;;;;5105847;27;43110;-81
2023/09/22 11:15:16;;;;;;;;;;;24.60;78.60;;;;;;5105170;27;43018;-80
2023/09/22 11:17:42;;;;;;;;;;;24.90;80.10;;;;;;5105053;27;44594;-80
2023/09/22 11:20:15;;;;;;;;;;;24.70;80.10;;;;;;5104928;27;43048;-80
2023/09/22 11:22:42;;;;;;;;;;;24.90;80.50;;;;;;5104647;27;43571;-80
2023/09/22 11:25:11;;;;;;;;;;;24.70;80.60;;;;;;5105596;27;42856;-80
2023/09/22 11:27:50;;;;;;;;;;;24.80;78.50;;;;;;5108116;27;43703;-80
2023/09/22 11:30:17;;;;;;;;;;;24.70;78.60;;;;;;5108937;27;42802;-80
2023/09/22 11:32:44;;;;;;;;;;;24.60;80.50;;;;;;5108710;27;42919;-79
2023/09/22 11:35:11;;;;;;;;;;;24.70;80.00;;;;;;5109001;27;42905;-80
2023/09/22 11:37:37;;;;;;;;;;;24.70;80.60;;;;;;5090367;27;44623;-80
2023/09/22 11:40:13;;;;;;;;;;;25.40;80.80;;;;;;5108571;27;43012;-80
2023/09/22 11:42:44;;;;;;;;;;;24.90;78.60;;;;;;5108845;27;43347;-80
2023/09/22 11:45:10;;;;;;;;;;;24.80;80.70;;;;;;5108174;27;42937;-81
2023/09/22 11:47:36;;;;;;;;;;;24.90;80.50;;;;;;5108719;27;43098;-80
2023/09/22 11:50:03;;;;;;;;;;;24.90;80.50;;;;;;5108364;27;42925;-80
2023/09/22 11:52:29;;;;;;;;;;;24.80;81.00;;;;;;5090043;27;45178;-79
2023/09/22 11:54:55;;;;;;;;;;;24.80;81.10;;;;;;5104813;27;42988;-79
2023/09/22 11:57:20;;;;;;;;;;;24.70;80.80;;;;;;5086989;27;42906;-79
2023/09/22 11:59:48;;;;;;;;;;;24.70;80.60;;;;;;5087179;28;42874;-80
2023/09/22 12:02:13;;;;;;;;;;;24.70;80.40;;;;;;5087912;28;42973;-79
2023/09/22 12:04:39;;;;;;;;;;;25.00;80.90;;;;;;5091975;27;43249;-80
2023/09/22 12:07:05;;;;;;;;;;;24.70;80.70;;;;;;5095578;27;43552;-80
2023/09/22 12:09:32;;;;;;;;;;;24.90;80.80;;;;;;5086467;28;43056;-80
2023/09/22 12:11:57;;;;;;;;;;;24.80;80.60;;;;;;5086568;28;43490;-79
2023/09/22 12:14:23;;;;;;;;;;;24.90;80.30;;;;;;5086587;28;42913;-80
2023/09/22 12:16:51;;;;;;;;;;;24.80;80.70;;;;;;5087210;28;42874;-80
2023/09/22 12:19:17;;;;;;;;;;;24.80;80.70;;;;;;5086699;28;42967;-81
2023/09/22 12:21:43;;;;;;;;;;;24.90;80.70;;;;;;5086201;28;44519;-80
2023/09/22 12:24:09;;;;;;;;;;;24.70;80.10;;;;;;5101526;27;43092;-80
2023/09/22 12:26:34;;;;;;;;;;;25.00;80.70;;;;;;5106069;27;43470;-83
2023/09/22 12:29:03;;;;;;;;;;;24.80;80.50;;;;;;5107942;27;42951;-83
2023/09/22 12:31:29;;;;;;;;;;;24.90;80.60;;;;;;5107258;27;43449;-83
2023/09/22 12:33:55;;;;;;;;;;;24.90;80.10;;;;;;5107338;27;43653;-83
2023/09/22 12:36:20;;;;;;;;;;;24.90;80.00;;;;;;5107711;27;43074;-82
2023/09/22 12:38:47;;;;;;;;;;;24.90;80.20;;;;;;5108192;27;42906;-83
2023/09/22 12:41:13;;;;;;;;;;;25.10;81.30;;;;;;5108482;27;42988;-87
2023/09/22 12:43:39;;;;;;;;;;;24.90;80.90;;;;;;5109113;27;43050;-86
2023/09/22 12:46:08;;;;;;;;;;;24.90;80.30;;;;;;5109185;27;43470;-88
2023/09/22 12:48:34;;;;;;;;;;;24.90;78.70;;;;;;5108055;27;42782;-86
2023/09/22 12:50:59;;;;;;;;;;;24.90;81.00;;;;;;5107241;27;43397;-87
2023/09/22 12:53:27;;;;;;;;;;;24.90;80.40;;;;;;5108123;27;42976;-83
2023/09/22 12:55:57;;;;;;;;;;;25.00;80.80;;;;;;5107619;27;42871;-84
2023/09/22 12:58:26;;;;;;;;;;;25.30;81.40;;;;;;5107920;27;43086;-82
2023/09/22 13:01:04;;;;;;;;;;;25.00;78.90;;;;;;5107806;27;42884;-87
2023/09/22 13:03:31;;;;;;;;;;;24.80;81.20;;;;;;5107941;27;42868;-86
2023/09/22 13:06:00;;;;;;;;;;;24.90;80.70;;;;;;5089212;27;44611;-83
2023/09/22 13:08:25;;;;;;;;;;;24.80;81.40;;;;;;5107603;27;42941;-82
2023/09/22 13:10:51;;;;;;;;;;;24.90;81.20;;;;;;5106384;27;43036;-82
2023/09/22 13:13:17;;;;;;;;;;;25.00;81.40;;;;;;5107202;27;43001;-83
2023/09/22 13:15:44;;;;;;;;;;;24.70;80.70;;;;;;5107279;27;43661;-85
2023/09/22 13:18:10;;;;;;;;;;;25.00;81.40;;;;;;5107192;27;43043;-86
2023/09/22 13:20:37;;;;;;;;;;;24.90;81.50;;;;;;5107559;27;42775;-85
2023/09/22 13:23:04;;;;;;;;;;;24.80;81.50;;;;;;5107543;27;43007;-87
2023/09/22 13:25:35;;;;;;;;;;;25.00;81.40;;;;;;5106741;27;43648;-84
2023/09/22 13:28:00;;;;;;;;;;;24.90;81.00;;;;;;5107041;27;43014;-86
2023/09/22 13:30:26;;;;;;;;;;;24.90;81.50;;;;;;5107067;27;43550;-84
2023/09/22 13:32:51;;;;;;;;;;;25.10;81.80;;;;;;5107252;27;42890;-83
2023/09/22 13:35:17;;;;;;;;;;;25.00;81.90;;;;;;5106738;27;43583;-86
2023/09/22 13:37:42;;;;;;;;;;;24.90;81.00;;;;;;5106988;27;42992;-82
2023/09/22 13:40:11;;;;;;;;;;;24.90;81.00;;;;;;5106825;27;42939;-83
2023/09/22 13:42:37;;;;;;;;;;;24.90;80.50;;;;;;5107194;27;42938;-83
2023/09/22 13:45:03;;;;;;;;;;;24.90;80.90;;;;;;5088563;27;44428;-83
2023/09/22 13:47:28;;;;;;;;;;;24.90;81.30;;;;;;5107369;27;42930;-86
2023/09/22 13:49:54;;;;;;;;;;;25.00;81.50;;;;;;5106192;27;42971;-87
2023/09/22 13:52:20;;;;;;;;;;;24.90;81.50;;;;;;5106869;27;43000;-83
2023/09/22 13:54:45;;;;;;;;;;;24.80;80.90;;;;;;5106592;27;43066;-83
2023/09/22 13:57:11;;;;;;;;;;;24.80;80.90;;;;;;5107322;27;42902;-83
2023/09/22 13:59:36;;;;;;;;;;;24.90;82.10;;;;;;5106476;27;43631;-83
2023/09/22 14:02:02;;;;;;;;;;;24.90;81.00;;;;;;5106312;27;42948;-83
2023/09/22 14:04:27;;;;;;;;;;;24.80;81.30;;;;;;5106207;27;43483;-85
2023/09/22 14:06:56;;;;;;;;;;;24.90;81.40;;;;;;5106095;27;43010;-83
2023/09/22 14:09:21;;;;;;;;;;;24.80;80.80;;;;;;5087260;27;44766;-83
2023/09/22 14:11:47;;;;;;;;;;;24.90;81.10;;;;;;5107302;27;42963;-83
2023/09/22 14:14:13;;;;;;;;;;;24.90;81.00;;;;;;5107031;27;44034;-86